Terminal Aerodrome Forecast
Issued by NWS

Home | Current Version | Previous Version | Text Only | Print | Product List | Glossary On
Versions: 1 2 3 4 5 6 7 8 9 10 11 12 13 14
000
FTUS42 TJSJ 302300 RRA
TAFJPS
TAF
TJPS 302339Z 3100/3124 07008KT P6SM FEW022 BKN060
     FM310230 05002KT P6SM FEW060
     FM311400 13012KT P6SM FEW025 SCT050
      AMD NOT SKED TIL 310300=

USA.gov is the U.S. government's official web portal to all federal, state and local government web resources and services.